sensor_id;sensor_type;location;lat;lon;timestamp;P1;durP1;ratioP1;P2;durP2;ratioP2
21657;SDS011;10990;48.174;9.782;2024-01-16T00:00:19;4.93;;;2.40;;
21657;SDS011;10990;48.174;9.782;2024-01-16T00:02:45;6.77;;;2.97;;
21657;SDS011;10990;48.174;9.782;2024-01-16T00:05:11;5.73;;;2.63;;
21657;SDS011;10990;48.174;9.782;2024-01-16T00:07:38;7.67;;;2.90;;
21657;SDS011;10990;48.174;9.782;2024-01-16T00:10:06;5.77;;;2.63;;
21657;SDS011;10990;48.174;9.782;2024-01-16T00:12:32;6.50;;;2.67;;
21657;SDS011;10990;48.174;9.782;2024-01-16T00:15:01;5.97;;;2.60;;
21657;SDS011;10990;48.174;9.782;2024-01-16T00:17:27;6.03;;;2.70;;
21657;SDS011;10990;48.174;9.782;2024-01-16T00:19:52;6.43;;;2.80;;
21657;SDS011;10990;48.174;9.782;2024-01-16T00:22:18;4.43;;;2.20;;
21657;SDS011;10990;48.174;9.782;2024-01-16T00:24:44;5.23;;;2.50;;
21657;SDS011;10990;48.174;9.782;2024-01-16T00:27:10;4.53;;;2.40;;
21657;SDS011;10990;48.174;9.782;2024-01-16T00:29:35;5.10;;;2.67;;
21657;SDS011;10990;48.174;9.782;2024-01-16T00:32:05;4.97;;;2.60;;
21657;SDS011;10990;48.174;9.782;2024-01-16T00:34:31;6.20;;;2.67;;
21657;SDS011;10990;48.174;9.782;2024-01-16T00:36:57;5.00;;;2.70;;
21657;SDS011;10990;48.174;9.782;2024-01-16T00:39:23;6.50;;;2.70;;
21657;SDS011;10990;48.174;9.782;2024-01-16T00:41:49;5.40;;;2.30;;
21657;SDS011;10990;48.174;9.782;2024-01-16T00:44:14;6.43;;;2.87;;
21657;SDS011;10990;48.174;9.782;2024-01-16T00:46:40;6.37;;;2.80;;
21657;SDS011;10990;48.174;9.782;2024-01-16T00:49:09;5.10;;;2.47;;
21657;SDS011;10990;48.174;9.782;2024-01-16T00:51:35;4.50;;;2.40;;
21657;SDS011;10990;48.174;9.782;2024-01-16T00:54:00;4.83;;;2.63;;
21657;SDS011;10990;48.174;9.782;2024-01-16T00:56:26;4.83;;;2.53;;
21657;SDS011;10990;48.174;9.782;2024-01-16T00:58:52;4.37;;;2.40;;
21657;SDS011;10990;48.174;9.782;2024-01-16T01:01:18;4.93;;;2.17;;
21657;SDS011;10990;48.174;9.782;2024-01-16T01:03:44;6.37;;;2.70;;
21657;SDS011;10990;48.174;9.782;2024-01-16T01:06:12;5.73;;;2.90;;
21657;SDS011;10990;48.174;9.782;2024-01-16T01:08:38;6.20;;;2.90;;
21657;SDS011;10990;48.174;9.782;2024-01-16T01:11:04;4.47;;;2.50;;
21657;SDS011;10990;48.174;9.782;2024-01-16T01:13:30;5.90;;;2.70;;
21657;SDS011;10990;48.174;9.782;2024-01-16T01:15:55;6.60;;;2.83;;
21657;SDS011;10990;48.174;9.782;2024-01-16T01:18:21;6.70;;;2.43;;
21657;SDS011;10990;48.174;9.782;2024-01-16T01:20:47;6.57;;;2.73;;
21657;SDS011;10990;48.174;9.782;2024-01-16T01:23:16;4.63;;;2.50;;
21657;SDS011;10990;48.174;9.782;2024-01-16T01:25:42;5.27;;;2.57;;
21657;SDS011;10990;48.174;9.782;2024-01-16T01:28:07;5.50;;;2.83;;
21657;SDS011;10990;48.174;9.782;2024-01-16T01:30:33;6.90;;;2.60;;
21657;SDS011;10990;48.174;9.782;2024-01-16T01:32:59;6.90;;;2.80;;
21657;SDS011;10990;48.174;9.782;2024-01-16T01:35:25;6.30;;;2.50;;
21657;SDS011;10990;48.174;9.782;2024-01-16T01:37:51;6.37;;;2.70;;
21657;SDS011;10990;48.174;9.782;2024-01-16T01:40:19;5.63;;;2.80;;
21657;SDS011;10990;48.174;9.782;2024-01-16T01:42:45;5.50;;;2.67;;
21657;SDS011;10990;48.174;9.782;2024-01-16T01:45:11;5.10;;;2.63;;
21657;SDS011;10990;48.174;9.782;2024-01-16T01:47:37;5.50;;;2.30;;
21657;SDS011;10990;48.174;9.782;2024-01-16T01:50:04;7.03;;;2.70;;
21657;SDS011;10990;48.174;9.782;2024-01-16T01:52:33;5.33;;;2.50;;
21657;SDS011;10990;48.174;9.782;2024-01-16T01:54:59;6.43;;;2.40;;
21657;SDS011;10990;48.174;9.782;2024-01-16T01:57:29;7.07;;;2.70;;
21657;SDS011;10990;48.174;9.782;2024-01-16T01:59:55;7.83;;;2.80;;
21657;SDS011;10990;48.174;9.782;2024-01-16T02:02:25;4.27;;;2.23;;
21657;SDS011;10990;48.174;9.782;2024-01-16T02:04:52;6.03;;;2.60;;
21657;SDS011;10990;48.174;9.782;2024-01-16T02:07:18;5.30;;;2.57;;
21657;SDS011;10990;48.174;9.782;2024-01-16T02:09:43;7.13;;;2.57;;
21657;SDS011;10990;48.174;9.782;2024-01-16T02:12:09;6.70;;;2.80;;
21657;SDS011;10990;48.174;9.782;2024-01-16T02:14:38;9.37;;;3.30;;
21657;SDS011;10990;48.174;9.782;2024-01-16T02:17:03;11.23;;;3.80;;
21657;SDS011;10990;48.174;9.782;2024-01-16T02:19:29;6.33;;;3.00;;
21657;SDS011;10990;48.174;9.782;2024-01-16T02:21:57;5.90;;;2.80;;
21657;SDS011;10990;48.174;9.782;2024-01-16T02:24:27;6.33;;;2.57;;
21657;SDS011;10990;48.174;9.782;2024-01-16T02:26:53;5.30;;;2.77;;
21657;SDS011;10990;48.174;9.782;2024-01-16T02:29:19;7.67;;;2.93;;
21657;SDS011;10990;48.174;9.782;2024-01-16T02:31:45;5.43;;;2.50;;
21657;SDS011;10990;48.174;9.782;2024-01-16T02:34:11;5.37;;;2.63;;
21657;SDS011;10990;48.174;9.782;2024-01-16T02:36:37;4.20;;;2.40;;
21657;SDS011;10990;48.174;9.782;2024-01-16T02:39:03;5.23;;;2.37;;
21657;SDS011;10990;48.174;9.782;2024-01-16T02:41:31;5.67;;;2.80;;
21657;SDS011;10990;48.174;9.782;2024-01-16T02:43:57;4.23;;;2.43;;
21657;SDS011;10990;48.174;9.782;2024-01-16T02:46:23;7.37;;;2.93;;
21657;SDS011;10990;48.174;9.782;2024-01-16T02:48:49;5.10;;;2.53;;
21657;SDS011;10990;48.174;9.782;2024-01-16T02:51:15;5.57;;;2.47;;
21657;SDS011;10990;48.174;9.782;2024-01-16T02:53:41;4.10;;;2.20;;
21657;SDS011;10990;48.174;9.782;2024-01-16T02:56:07;5.10;;;2.60;;
21657;SDS011;10990;48.174;9.782;2024-01-16T02:58:39;4.77;;;2.27;;
21657;SDS011;10990;48.174;9.782;2024-01-16T03:01:05;4.83;;;2.60;;
21657;SDS011;10990;48.174;9.782;2024-01-16T03:03:31;5.13;;;2.30;;
21657;SDS011;10990;48.174;9.782;2024-01-16T03:05:57;5.17;;;2.43;;
21657;SDS011;10990;48.174;9.782;2024-01-16T03:08:23;4.17;;;2.17;;
21657;SDS011;10990;48.174;9.782;2024-01-16T03:10:49;4.90;;;2.53;;
21657;SDS011;10990;48.174;9.782;2024-01-16T03:13:17;5.77;;;2.47;;
21657;SDS011;10990;48.174;9.782;2024-01-16T03:15:45;4.93;;;2.50;;
21657;SDS011;10990;48.174;9.782;2024-01-16T03:18:11;5.53;;;2.47;;
21657;SDS011;10990;48.174;9.782;2024-01-16T03:20:37;4.47;;;2.53;;
21657;SDS011;10990;48.174;9.782;2024-01-16T03:23:03;6.27;;;3.07;;
21657;SDS011;10990;48.174;9.782;2024-01-16T03:25:29;3.50;;;2.10;;
21657;SDS011;10990;48.174;9.782;2024-01-16T03:27:55;5.17;;;2.50;;
21657;SDS011;10990;48.174;9.782;2024-01-16T03:30:21;3.73;;;2.00;;
21657;SDS011;10990;48.174;9.782;2024-01-16T03:32:50;6.87;;;2.50;;
21657;SDS011;10990;48.174;9.782;2024-01-16T03:35:16;4.33;;;2.20;;
21657;SDS011;10990;48.174;9.782;2024-01-16T03:37:42;5.43;;;2.43;;
21657;SDS011;10990;48.174;9.782;2024-01-16T03:40:08;5.00;;;2.40;;
21657;SDS011;10990;48.174;9.782;2024-01-16T03:42:35;7.80;;;2.70;;
21657;SDS011;10990;48.174;9.782;2024-01-16T03:45:01;4.70;;;2.10;;
21657;SDS011;10990;48.174;9.782;2024-01-16T03:47:27;6.03;;;2.30;;
21657;SDS011;10990;48.174;9.782;2024-01-16T03:49:55;5.87;;;2.30;;
21657;SDS011;10990;48.174;9.782;2024-01-16T03:52:21;3.70;;;2.03;;
21657;SDS011;10990;48.174;9.782;2024-01-16T03:54:47;5.67;;;2.20;;
21657;SDS011;10990;48.174;9.782;2024-01-16T03:57:13;5.87;;;2.10;;
21657;SDS011;10990;48.174;9.782;2024-01-16T03:59:39;4.67;;;2.30;;
21657;SDS011;10990;48.174;9.782;2024-01-16T04:02:05;4.20;;;2.17;;
21657;SDS011;10990;48.174;9.782;2024-01-16T04:04:31;5.80;;;2.40;;
21657;SDS011;10990;48.174;9.782;2024-01-16T04:06:59;4.73;;;2.23;;
21657;SDS011;10990;48.174;9.782;2024-01-16T04:09:25;5.07;;;2.13;;
21657;SDS011;10990;48.174;9.782;2024-01-16T04:11:51;5.60;;;2.50;;
21657;SDS011;10990;48.174;9.782;2024-01-16T04:14:17;5.50;;;2.07;;
21657;SDS011;10990;48.174;9.782;2024-01-16T04:16:43;4.10;;;2.20;;
21657;SDS011;10990;48.174;9.782;2024-01-16T04:19:09;6.17;;;2.40;;
21657;SDS011;10990;48.174;9.782;2024-01-16T04:21:36;4.63;;;2.40;;
21657;SDS011;10990;48.174;9.782;2024-01-16T04:24:05;5.20;;;2.60;;
21657;SDS011;10990;48.174;9.782;2024-01-16T04:26:31;5.87;;;2.50;;
21657;SDS011;10990;48.174;9.782;2024-01-16T04:28:56;7.43;;;2.50;;
21657;SDS011;10990;48.174;9.782;2024-01-16T04:31:22;4.83;;;2.60;;
21657;SDS011;10990;48.174;9.782;2024-01-16T04:33:48;5.10;;;2.53;;
21657;SDS011;10990;48.174;9.782;2024-01-16T04:36:14;6.37;;;2.30;;
21657;SDS011;10990;48.174;9.782;2024-01-16T04:38:40;5.03;;;2.30;;
21657;SDS011;10990;48.174;9.782;2024-01-16T04:41:09;4.07;;;2.20;;
21657;SDS011;10990;48.174;9.782;2024-01-16T04:43:35;5.03;;;2.57;;
21657;SDS011;10990;48.174;9.782;2024-01-16T04:46:01;5.57;;;2.40;;
21657;SDS011;10990;48.174;9.782;2024-01-16T04:48:27;5.67;;;2.57;;
21657;SDS011;10990;48.174;9.782;2024-01-16T04:50:53;5.83;;;2.73;;
21657;SDS011;10990;48.174;9.782;2024-01-16T04:53:19;5.27;;;2.50;;
21657;SDS011;10990;48.174;9.782;2024-01-16T04:55:45;6.80;;;2.53;;
21657;SDS011;10990;48.174;9.782;2024-01-16T04:58:13;5.57;;;2.40;;
21657;SDS011;10990;48.174;9.782;2024-01-16T05:00:39;6.20;;;2.83;;
21657;SDS011;10990;48.174;9.782;2024-01-16T05:03:05;6.73;;;2.60;;
21657;SDS011;10990;48.174;9.782;2024-01-16T05:05:31;5.13;;;2.60;;
21657;SDS011;10990;48.174;9.782;2024-01-16T05:07:57;4.90;;;2.33;;
21657;SDS011;10990;48.174;9.782;2024-01-16T05:10:26;5.33;;;2.50;;
21657;SDS011;10990;48.174;9.782;2024-01-16T05:12:52;6.23;;;2.83;;
21657;SDS011;10990;48.174;9.782;2024-01-16T05:15:20;7.63;;;2.53;;
21657;SDS011;10990;48.174;9.782;2024-01-16T05:17:46;6.37;;;2.53;;
21657;SDS011;10990;48.174;9.782;2024-01-16T05:20:12;6.97;;;2.67;;
21657;SDS011;10990;48.174;9.782;2024-01-16T05:22:38;6.27;;;2.60;;
21657;SDS011;10990;48.174;9.782;2024-01-16T05:25:04;4.73;;;2.60;;
21657;SDS011;10990;48.174;9.782;2024-01-16T05:27:30;6.20;;;3.30;;
21657;SDS011;10990;48.174;9.782;2024-01-16T05:29:56;10.67;;;4.80;;
21657;SDS011;10990;48.174;9.782;2024-01-16T05:32:25;8.70;;;3.67;;
21657;SDS011;10990;48.174;9.782;2024-01-16T05:34:50;8.53;;;3.23;;
21657;SDS011;10990;48.174;9.782;2024-01-16T05:37:17;7.57;;;2.97;;
21657;SDS011;10990;48.174;9.782;2024-01-16T05:39:42;9.97;;;4.00;;
21657;SDS011;10990;48.174;9.782;2024-01-16T05:42:08;14.50;;;5.97;;
21657;SDS011;10990;48.174;9.782;2024-01-16T05:44:34;18.83;;;7.80;;
21657;SDS011;10990;48.174;9.782;2024-01-16T05:47:00;19.57;;;7.90;;
21657;SDS011;10990;48.174;9.782;2024-01-16T05:49:28;19.00;;;7.50;;
21657;SDS011;10990;48.174;9.782;2024-01-16T05:51:54;13.67;;;5.77;;
21657;SDS011;10990;48.174;9.782;2024-01-16T05:54:20;15.00;;;5.97;;
21657;SDS011;10990;48.174;9.782;2024-01-16T05:56:46;16.30;;;7.70;;
21657;SDS011;10990;48.174;9.782;2024-01-16T05:59:12;18.33;;;7.80;;
21657;SDS011;10990;48.174;9.782;2024-01-16T06:01:38;14.10;;;6.20;;
21657;SDS011;10990;48.174;9.782;2024-01-16T06:04:04;12.70;;;5.37;;
21657;SDS011;10990;48.174;9.782;2024-01-16T06:06:32;8.83;;;4.27;;
21657;SDS011;10990;48.174;9.782;2024-01-16T06:08:58;8.47;;;3.77;;
21657;SDS011;10990;48.174;9.782;2024-01-16T06:11:29;8.20;;;3.80;;
21657;SDS011;10990;48.174;9.782;2024-01-16T06:13:55;9.73;;;3.87;;
21657;SDS011;10990;48.174;9.782;2024-01-16T06:16:21;9.63;;;3.60;;
21657;SDS011;10990;48.174;9.782;2024-01-16T06:18:47;9.30;;;3.80;;
21657;SDS011;10990;48.174;9.782;2024-01-16T06:21:12;6.77;;;3.50;;
21657;SDS011;10990;48.174;9.782;2024-01-16T06:23:41;9.10;;;3.80;;
21657;SDS011;10990;48.174;9.782;2024-01-16T06:26:07;8.80;;;3.80;;
21657;SDS011;10990;48.174;9.782;2024-01-16T06:28:33;7.90;;;3.60;;
21657;SDS011;10990;48.174;9.782;2024-01-16T06:30:59;7.13;;;3.27;;
21657;SDS011;10990;48.174;9.782;2024-01-16T06:33:25;7.63;;;3.50;;
21657;SDS011;10990;48.174;9.782;2024-01-16T06:35:51;7.03;;;3.40;;
21657;SDS011;10990;48.174;9.782;2024-01-16T06:38:16;7.53;;;3.30;;
21657;SDS011;10990;48.174;9.782;2024-01-16T06:40:45;6.43;;;3.10;;
21657;SDS011;10990;48.174;9.782;2024-01-16T06:43:11;7.47;;;3.07;;
21657;SDS011;10990;48.174;9.782;2024-01-16T06:45:37;8.40;;;3.50;;
21657;SDS011;10990;48.174;9.782;2024-01-16T06:48:03;8.03;;;3.50;;
21657;SDS011;10990;48.174;9.782;2024-01-16T06:50:29;8.87;;;3.60;;
21657;SDS011;10990;48.174;9.782;2024-01-16T06:52:55;8.90;;;3.40;;
21657;SDS011;10990;48.174;9.782;2024-01-16T06:55:21;7.83;;;3.73;;
21657;SDS011;10990;48.174;9.782;2024-01-16T06:57:49;9.80;;;3.70;;
21657;SDS011;10990;48.174;9.782;2024-01-16T07:00:16;8.50;;;3.40;;
21657;SDS011;10990;48.174;9.782;2024-01-16T07:02:42;8.37;;;3.20;;
21657;SDS011;10990;48.174;9.782;2024-01-16T07:05:08;6.00;;;2.90;;
21657;SDS011;10990;48.174;9.782;2024-01-16T07:07:34;8.23;;;3.37;;
21657;SDS011;10990;48.174;9.782;2024-01-16T07:10:00;7.37;;;3.37;;
21657;SDS011;10990;48.174;9.782;2024-01-16T07:12:25;6.07;;;3.17;;
21657;SDS011;10990;48.174;9.782;2024-01-16T07:14:54;8.10;;;3.43;;
21657;SDS011;10990;48.174;9.782;2024-01-16T07:17:20;7.47;;;3.40;;
21657;SDS011;10990;48.174;9.782;2024-01-16T07:19:45;11.87;;;3.40;;
21657;SDS011;10990;48.174;9.782;2024-01-16T07:22:11;7.57;;;3.20;;
21657;SDS011;10990;48.174;9.782;2024-01-16T07:24:37;9.87;;;3.70;;
21657;SDS011;10990;48.174;9.782;2024-01-16T07:27:03;6.87;;;3.37;;
21657;SDS011;10990;48.174;9.782;2024-01-16T07:29:29;9.20;;;3.93;;
21657;SDS011;10990;48.174;9.782;2024-01-16T07:31:57;10.07;;;4.00;;
21657;SDS011;10990;48.174;9.782;2024-01-16T07:34:23;8.87;;;4.13;;
21657;SDS011;10990;48.174;9.782;2024-01-16T07:36:49;8.47;;;3.87;;
21657;SDS011;10990;48.174;9.782;2024-01-16T07:39:15;8.53;;;4.00;;
21657;SDS011;10990;48.174;9.782;2024-01-16T07:41:41;7.80;;;4.23;;
21657;SDS011;10990;48.174;9.782;2024-01-16T07:44:06;8.07;;;3.70;;
21657;SDS011;10990;48.174;9.782;2024-01-16T07:46:32;9.97;;;3.80;;
21657;SDS011;10990;48.174;9.782;2024-01-16T07:49:01;10.97;;;3.97;;
21657;SDS011;10990;48.174;9.782;2024-01-16T07:51:26;8.00;;;3.80;;
21657;SDS011;10990;48.174;9.782;2024-01-16T07:54:03;10.10;;;4.07;;
21657;SDS011;10990;48.174;9.782;2024-01-16T07:56:30;10.17;;;4.00;;
21657;SDS011;10990;48.174;9.782;2024-01-16T07:58:56;8.30;;;3.63;;
21657;SDS011;10990;48.174;9.782;2024-01-16T08:01:22;9.00;;;4.10;;
21657;SDS011;10990;48.174;9.782;2024-01-16T08:03:48;10.13;;;3.80;;
21657;SDS011;10990;48.174;9.782;2024-01-16T08:06:16;11.07;;;3.93;;
21657;SDS011;10990;48.174;9.782;2024-01-16T08:08:42;7.93;;;3.73;;
21657;SDS011;10990;48.174;9.782;2024-01-16T08:11:08;10.10;;;3.93;;
21657;SDS011;10990;48.174;9.782;2024-01-16T08:13:34;12.43;;;4.97;;
21657;SDS011;10990;48.174;9.782;2024-01-16T08:15:59;9.83;;;4.50;;
21657;SDS011;10990;48.174;9.782;2024-01-16T08:18:25;9.80;;;4.07;;
21657;SDS011;10990;48.174;9.782;2024-01-16T08:20:51;9.37;;;4.53;;
21657;SDS011;10990;48.174;9.782;2024-01-16T08:23:19;11.33;;;4.70;;
21657;SDS011;10990;48.174;9.782;2024-01-16T08:25:45;13.23;;;5.63;;
21657;SDS011;10990;48.174;9.782;2024-01-16T08:28:11;14.87;;;6.30;;
21657;SDS011;10990;48.174;9.782;2024-01-16T08:30:37;13.77;;;6.83;;
21657;SDS011;10990;48.174;9.782;2024-01-16T08:33:03;18.40;;;7.97;;
21657;SDS011;10990;48.174;9.782;2024-01-16T08:35:29;21.33;;;9.17;;
21657;SDS011;10990;48.174;9.782;2024-01-16T08:37:55;22.73;;;10.07;;
21657;SDS011;10990;48.174;9.782;2024-01-16T08:40:23;21.03;;;9.07;;
21657;SDS011;10990;48.174;9.782;2024-01-16T08:42:49;27.97;;;9.77;;
21657;SDS011;10990;48.174;9.782;2024-01-16T08:45:15;26.50;;;9.50;;
21657;SDS011;10990;48.174;9.782;2024-01-16T08:47:40;21.67;;;8.57;;
21657;SDS011;10990;48.174;9.782;2024-01-16T08:50:06;14.80;;;6.70;;
21657;SDS011;10990;48.174;9.782;2024-01-16T08:52:32;14.60;;;6.77;;
21657;SDS011;10990;48.174;9.782;2024-01-16T08:54:58;16.70;;;7.33;;
21657;SDS011;10990;48.174;9.782;2024-01-16T08:57:26;11.90;;;5.53;;
21657;SDS011;10990;48.174;9.782;2024-01-16T08:59:52;11.77;;;5.90;;
21657;SDS011;10990;48.174;9.782;2024-01-16T09:02:18;11.00;;;5.20;;
21657;SDS011;10990;48.174;9.782;2024-01-16T09:04:44;9.77;;;5.00;;
21657;SDS011;10990;48.174;9.782;2024-01-16T09:07:10;8.63;;;4.70;;
21657;SDS011;10990;48.174;9.782;2024-01-16T09:09:36;10.87;;;4.70;;
21657;SDS011;10990;48.174;9.782;2024-01-16T09:12:02;9.10;;;4.73;;
21657;SDS011;10990;48.174;9.782;2024-01-16T09:14:30;7.20;;;4.27;;
21657;SDS011;10990;48.174;9.782;2024-01-16T09:16:56;8.00;;;4.60;;
21657;SDS011;10990;48.174;9.782;2024-01-16T09:19:22;8.83;;;4.27;;
21657;SDS011;10990;48.174;9.782;2024-01-16T09:21:48;7.63;;;4.40;;
21657;SDS011;10990;48.174;9.782;2024-01-16T09:24:14;9.87;;;4.83;;
21657;SDS011;10990;48.174;9.782;2024-01-16T09:26:39;10.57;;;4.60;;
21657;SDS011;10990;48.174;9.782;2024-01-16T09:29:05;8.10;;;4.30;;
21657;SDS011;10990;48.174;9.782;2024-01-16T09:31:35;8.63;;;4.57;;
21657;SDS011;10990;48.174;9.782;2024-01-16T09:34:00;6.70;;;4.00;;
21657;SDS011;10990;48.174;9.782;2024-01-16T09:36:26;9.03;;;4.50;;
21657;SDS011;10990;48.174;9.782;2024-01-16T09:38:52;6.90;;;3.70;;
21657;SDS011;10990;48.174;9.782;2024-01-16T09:41:18;8.30;;;4.20;;
21657;SDS011;10990;48.174;9.782;2024-01-16T09:43:44;7.27;;;4.20;;
21657;SDS011;10990;48.174;9.782;2024-01-16T09:46:11;6.90;;;3.83;;
21657;SDS011;10990;48.174;9.782;2024-01-16T09:48:40;8.67;;;3.90;;
21657;SDS011;10990;48.174;9.782;2024-01-16T09:51:09;6.87;;;3.90;;
21657;SDS011;10990;48.174;9.782;2024-01-16T09:53:35;9.10;;;3.90;;
21657;SDS011;10990;48.174;9.782;2024-01-16T09:56:01;6.80;;;3.37;;
21657;SDS011;10990;48.174;9.782;2024-01-16T09:58:29;7.57;;;3.50;;
21657;SDS011;10990;48.174;9.782;2024-01-16T10:01:00;5.90;;;3.40;;
21657;SDS011;10990;48.174;9.782;2024-01-16T10:03:26;8.37;;;3.60;;
21657;SDS011;10990;48.174;9.782;2024-01-16T10:05:58;7.40;;;3.63;;
21657;SDS011;10990;48.174;9.782;2024-01-16T10:08:26;6.73;;;3.33;;
21657;SDS011;10990;48.174;9.782;2024-01-16T10:10:52;6.07;;;3.20;;
21657;SDS011;10990;48.174;9.782;2024-01-16T10:13:18;8.03;;;3.70;;
21657;SDS011;10990;48.174;9.782;2024-01-16T10:15:44;7.27;;;3.60;;
21657;SDS011;10990;48.174;9.782;2024-01-16T10:21:01;7.57;;;4.00;;
21657;SDS011;10990;48.174;9.782;2024-01-16T10:23:27;9.20;;;4.17;;
21657;SDS011;10990;48.174;9.782;2024-01-16T10:26:06;8.07;;;4.00;;
21657;SDS011;10990;48.174;9.782;2024-01-16T10:28:33;8.77;;;4.13;;
21657;SDS011;10990;48.174;9.782;2024-01-16T10:31:01;7.77;;;3.57;;
21657;SDS011;10990;48.174;9.782;2024-01-16T10:33:27;7.43;;;3.77;;
21657;SDS011;10990;48.174;9.782;2024-01-16T10:35:56;7.10;;;3.50;;
21657;SDS011;10990;48.174;9.782;2024-01-16T10:38:36;7.33;;;3.70;;
21657;SDS011;10990;48.174;9.782;2024-01-16T10:41:06;9.93;;;4.33;;
21657;SDS011;10990;48.174;9.782;2024-01-16T10:43:35;9.93;;;4.07;;
21657;SDS011;10990;48.174;9.782;2024-01-16T10:46:08;8.27;;;3.33;;
21657;SDS011;10990;48.174;9.782;2024-01-16T10:48:35;8.33;;;3.70;;
21657;SDS011;10990;48.174;9.782;2024-01-16T10:51:01;6.97;;;3.50;;
21657;SDS011;10990;48.174;9.782;2024-01-16T10:53:30;7.27;;;3.80;;
21657;SDS011;10990;48.174;9.782;2024-01-16T10:55:59;8.77;;;4.07;;
21657;SDS011;10990;48.174;9.782;2024-01-16T10:58:26;8.87;;;3.80;;
21657;SDS011;10990;48.174;9.782;2024-01-16T11:00:52;10.83;;;3.90;;
21657;SDS011;10990;48.174;9.782;2024-01-16T11:03:19;7.00;;;3.50;;
21657;SDS011;10990;48.174;9.782;2024-01-16T11:05:50;8.33;;;3.80;;
21657;SDS011;10990;48.174;9.782;2024-01-16T11:08:19;9.63;;;3.87;;
21657;SDS011;10990;48.174;9.782;2024-01-16T11:10:47;10.30;;;4.00;;
21657;SDS011;10990;48.174;9.782;2024-01-16T11:13:15;6.97;;;3.80;;
21657;SDS011;10990;48.174;9.782;2024-01-16T11:15:43;7.80;;;3.60;;
21657;SDS011;10990;48.174;9.782;2024-01-16T11:18:11;7.33;;;3.47;;
21657;SDS011;10990;48.174;9.782;2024-01-16T11:20:39;8.97;;;4.10;;
21657;SDS011;10990;48.174;9.782;2024-01-16T11:23:06;13.57;;;4.70;;
21657;SDS011;10990;48.174;9.782;2024-01-16T11:25:32;7.97;;;3.93;;
21657;SDS011;10990;48.174;9.782;2024-01-16T11:28:10;7.03;;;4.13;;
21657;SDS011;10990;48.174;9.782;2024-01-16T11:30:38;16.47;;;4.93;;
21657;SDS011;10990;48.174;9.782;2024-01-16T11:33:04;9.77;;;5.10;;
21657;SDS011;10990;48.174;9.782;2024-01-16T11:35:33;10.27;;;4.60;;
21657;SDS011;10990;48.174;9.782;2024-01-16T11:38:03;8.47;;;3.90;;
21657;SDS011;10990;48.174;9.782;2024-01-16T11:40:32;9.40;;;4.20;;
21657;SDS011;10990;48.174;9.782;2024-01-16T11:42:58;8.17;;;4.17;;
21657;SDS011;10990;48.174;9.782;2024-01-16T11:48:17;10.93;;;4.27;;
21657;SDS011;10990;48.174;9.782;2024-01-16T11:50:43;8.50;;;4.10;;
21657;SDS011;10990;48.174;9.782;2024-01-16T11:53:09;10.97;;;6.13;;
21657;SDS011;10990;48.174;9.782;2024-01-16T11:55:35;13.33;;;5.83;;
21657;SDS011;10990;48.174;9.782;2024-01-16T12:01:07;12.10;;;5.77;;
21657;SDS011;10990;48.174;9.782;2024-01-16T12:03:33;10.17;;;5.13;;
21657;SDS011;10990;48.174;9.782;2024-01-16T12:05:59;12.70;;;5.47;;
21657;SDS011;10990;48.174;9.782;2024-01-16T12:08:25;14.30;;;5.50;;
21657;SDS011;10990;48.174;9.782;2024-01-16T12:10:52;9.83;;;5.20;;
21657;SDS011;10990;48.174;9.782;2024-01-16T12:13:17;15.17;;;6.00;;
21657;SDS011;10990;48.174;9.782;2024-01-16T12:15:43;11.07;;;4.83;;
21657;SDS011;10990;48.174;9.782;2024-01-16T12:18:17;14.27;;;5.03;;
21657;SDS011;10990;48.174;9.782;2024-01-16T12:20:43;12.23;;;5.40;;
21657;SDS011;10990;48.174;9.782;2024-01-16T12:23:09;11.43;;;4.80;;
21657;SDS011;10990;48.174;9.782;2024-01-16T12:25:36;11.63;;;5.33;;
21657;SDS011;10990;48.174;9.782;2024-01-16T12:28:03;10.93;;;5.00;;
21657;SDS011;10990;48.174;9.782;2024-01-16T12:30:30;12.33;;;5.03;;
21657;SDS011;10990;48.174;9.782;2024-01-16T12:33:07;10.10;;;4.87;;
21657;SDS011;10990;48.174;9.782;2024-01-16T12:35:37;10.93;;;4.80;;
21657;SDS011;10990;48.174;9.782;2024-01-16T12:38:04;11.63;;;4.90;;
21657;SDS011;10990;48.174;9.782;2024-01-16T12:40:31;14.43;;;5.00;;
21657;SDS011;10990;48.174;9.782;2024-01-16T12:42:57;10.97;;;4.90;;
21657;SDS011;10990;48.174;9.782;2024-01-16T12:45:23;14.23;;;5.23;;
21657;SDS011;10990;48.174;9.782;2024-01-16T12:47:50;9.80;;;4.57;;
21657;SDS011;10990;48.174;9.782;2024-01-16T12:50:19;9.60;;;4.50;;
21657;SDS011;10990;48.174;9.782;2024-01-16T12:52:59;11.17;;;5.20;;
21657;SDS011;10990;48.174;9.782;2024-01-16T12:55:26;9.80;;;4.50;;
21657;SDS011;10990;48.174;9.782;2024-01-16T13:00:39;7.67;;;4.03;;
21657;SDS011;10990;48.174;9.782;2024-01-16T13:03:05;9.10;;;4.43;;
21657;SDS011;10990;48.174;9.782;2024-01-16T13:05:31;9.83;;;4.73;;
21657;SDS011;10990;48.174;9.782;2024-01-16T13:08:02;10.33;;;4.47;;
21657;SDS011;10990;48.174;9.782;2024-01-16T13:10:29;12.33;;;4.43;;
21657;SDS011;10990;48.174;9.782;2024-01-16T13:15:38;7.63;;;4.20;;
21657;SDS011;10990;48.174;9.782;2024-01-16T13:18:04;10.33;;;4.70;;
21657;SDS011;10990;48.174;9.782;2024-01-16T13:20:30;9.57;;;4.80;;
21657;SDS011;10990;48.174;9.782;2024-01-16T13:22:56;9.83;;;4.53;;
21657;SDS011;10990;48.174;9.782;2024-01-16T13:25:24;8.90;;;4.37;;
21657;SDS011;10990;48.174;9.782;2024-01-16T13:27:50;9.33;;;4.60;;
21657;SDS011;10990;48.174;9.782;2024-01-16T13:30:16;11.13;;;5.00;;
21657;SDS011;10990;48.174;9.782;2024-01-16T13:32:42;9.03;;;4.60;;
21657;SDS011;10990;48.174;9.782;2024-01-16T13:35:08;8.67;;;4.40;;
21657;SDS011;10990;48.174;9.782;2024-01-16T13:37:34;9.07;;;4.40;;
21657;SDS011;10990;48.174;9.782;2024-01-16T13:40:00;9.17;;;4.60;;
21657;SDS011;10990;48.174;9.782;2024-01-16T13:42:28;9.87;;;4.87;;
21657;SDS011;10990;48.174;9.782;2024-01-16T13:44:54;10.37;;;4.80;;
21657;SDS011;10990;48.174;9.782;2024-01-16T13:47:20;9.70;;;4.57;;
21657;SDS011;10990;48.174;9.782;2024-01-16T13:49:46;9.60;;;5.20;;
21657;SDS011;10990;48.174;9.782;2024-01-16T13:52:11;8.50;;;4.03;;
21657;SDS011;10990;48.174;9.782;2024-01-16T13:54:37;10.93;;;4.50;;
21657;SDS011;10990;48.174;9.782;2024-01-16T13:57:03;10.90;;;4.63;;
21657;SDS011;10990;48.174;9.782;2024-01-16T13:59:32;11.93;;;5.03;;
21657;SDS011;10990;48.174;9.782;2024-01-16T14:01:57;9.50;;;4.43;;
21657;SDS011;10990;48.174;9.782;2024-01-16T14:04:23;9.43;;;4.40;;
21657;SDS011;10990;48.174;9.782;2024-01-16T14:06:49;10.97;;;4.80;;
21657;SDS011;10990;48.174;9.782;2024-01-16T14:09:15;11.00;;;4.77;;
21657;SDS011;10990;48.174;9.782;2024-01-16T14:11:41;10.37;;;4.93;;
21657;SDS011;10990;48.174;9.782;2024-01-16T14:14:06;15.20;;;5.23;;
21657;SDS011;10990;48.174;9.782;2024-01-16T14:16:35;12.87;;;5.03;;
21657;SDS011;10990;48.174;9.782;2024-01-16T14:19:01;9.93;;;5.10;;
21657;SDS011;10990;48.174;9.782;2024-01-16T14:21:26;9.53;;;4.80;;
21657;SDS011;10990;48.174;9.782;2024-01-16T14:23:52;11.17;;;5.10;;
21657;SDS011;10990;48.174;9.782;2024-01-16T14:26:18;9.10;;;4.93;;
21657;SDS011;10990;48.174;9.782;2024-01-16T14:28:44;9.00;;;4.37;;
21657;SDS011;10990;48.174;9.782;2024-01-16T14:31:10;8.67;;;4.50;;
21657;SDS011;10990;48.174;9.782;2024-01-16T14:33:38;8.90;;;4.30;;
21657;SDS011;10990;48.174;9.782;2024-01-16T14:36:04;11.87;;;4.77;;
21657;SDS011;10990;48.174;9.782;2024-01-16T14:38:31;13.40;;;5.10;;
21657;SDS011;10990;48.174;9.782;2024-01-16T14:40:56;11.17;;;5.10;;
21657;SDS011;10990;48.174;9.782;2024-01-16T14:43:22;10.10;;;4.77;;
21657;SDS011;10990;48.174;9.782;2024-01-16T14:45:48;8.20;;;4.20;;
21657;SDS011;10990;48.174;9.782;2024-01-16T14:48:15;9.63;;;4.70;;
21657;SDS011;10990;48.174;9.782;2024-01-16T14:50:43;13.70;;;5.10;;
21657;SDS011;10990;48.174;9.782;2024-01-16T14:53:09;8.60;;;4.03;;
21657;SDS011;10990;48.174;9.782;2024-01-16T14:55:35;11.17;;;4.67;;